Time;durP1;ratioP1;P1;durP2;ratioP2;P2;SDS_P1;SDS_P2;PMS_P1;PMS_P2;Temp;Humidity;BMP_temperature;BMP_pressure;BME280_temperature;BME280_humidity;BME280_pressure;Samples;Min_cycle;Max_cycle;Signal;HPM_P1;HPM_P2
2021/03/08 00:00:32;;;;;;;0.85;0.85;;;3.80;99.90;;;;;;4413594;32;20070;-73
2021/03/08 00:02:59;;;;;;;0.85;0.85;;;3.80;99.90;;;;;;4412640;32;20134;-73
2021/03/08 00:05:24;;;;;;;0.60;0.60;;;3.90;99.90;;;;;;4413242;32;20523;-72
2021/03/08 00:07:50;;;;;;;2.08;1.35;;;4.00;99.90;;;;;;4413272;32;20065;-73
2021/03/08 00:10:19;;;;;;;7.00;1.15;;;3.90;99.90;;;;;;4426955;32;20097;-73
2021/03/08 00:12:47;;;;;;;3.90;0.77;;;3.80;99.90;;;;;;4429096;32;20065;-72
2021/03/08 00:15:14;;;;;;;1.15;0.85;;;3.80;99.90;;;;;;4430770;32;20088;-73
2021/03/08 00:17:40;;;;;;;2.42;1.55;;;3.80;99.90;;;;;;4431767;32;20069;-73
2021/03/08 00:20:08;;;;;;;1.45;0.98;;;3.90;99.90;;;;;;4432216;32;20120;-73
2021/03/08 00:22:35;;;;;;;0.77;0.77;;;3.90;99.90;;;;;;4432289;32;20116;-73
2021/03/08 00:25:00;;;;;;;1.55;0.93;;;3.90;99.90;;;;;;4430877;32;20137;-73
2021/03/08 00:27:26;;;;;;;0.65;0.65;;;3.90;99.90;;;;;;4430859;32;20090;-73
2021/03/08 00:29:51;;;;;;;1.87;1.17;;;3.90;99.90;;;;;;4430233;32;20419;-73
2021/03/08 00:32:17;;;;;;;1.83;1.00;;;3.90;99.90;;;;;;4430915;32;20057;-73
2021/03/08 00:34:42;;;;;;;0.55;0.55;;;3.90;99.90;;;;;;4431033;32;20125;-73
2021/03/08 00:37:08;;;;;;;3.90;1.15;;;3.90;99.90;;;;;;4431164;32;20105;-73
2021/03/08 00:39:33;;;;;;;0.50;0.50;;;3.90;99.90;;;;;;4431724;32;20057;-73
2021/03/08 00:41:59;;;;;;;0.77;0.77;;;3.90;99.90;;;;;;4431232;32;20066;-73
2021/03/08 00:44:25;;;;;;;0.50;0.50;;;3.90;99.90;;;;;;4430816;32;20078;-73
2021/03/08 00:46:51;;;;;;;0.55;0.55;;;3.90;99.90;;;;;;4431721;32;20069;-73
2021/03/08 00:49:17;;;;;;;0.75;0.75;;;3.90;99.90;;;;;;4431835;32;20458;-73
2021/03/08 00:51:42;;;;;;;0.57;0.55;;;3.80;99.90;;;;;;4430535;32;20069;-73
2021/03/08 00:54:08;;;;;;;0.80;0.80;;;3.80;99.90;;;;;;4431043;32;20061;-73
2021/03/08 00:56:33;;;;;;;0.70;0.68;;;3.80;99.90;;;;;;4430865;32;20109;-73
2021/03/08 00:58:59;;;;;;;0.68;0.68;;;3.80;99.90;;;;;;4430021;32;20081;-72
2021/03/08 01:01:24;;;;;;;0.82;0.82;;;3.80;99.90;;;;;;4430636;32;20065;-72
2021/03/08 01:03:50;;;;;;;0.73;0.70;;;3.70;99.90;;;;;;4431147;32;20597;-72
2021/03/08 01:06:15;;;;;;;0.90;0.82;;;3.70;99.90;;;;;;4430738;32;20061;-72
2021/03/08 01:08:41;;;;;;;0.75;0.75;;;3.70;99.90;;;;;;4426378;32;20065;-72
2021/03/08 01:11:06;;;;;;;0.93;0.85;;;3.70;99.90;;;;;;4414678;32;20086;-72
2021/03/08 01:13:32;;;;;;;0.30;0.30;;;3.60;99.90;;;;;;4415133;32;20508;-72
2021/03/08 01:15:57;;;;;;;0.47;0.45;;;3.60;99.90;;;;;;4415199;32;20066;-72
2021/03/08 01:18:23;;;;;;;0.40;0.40;;;3.70;99.90;;;;;;4415207;32;20082;-72
2021/03/08 01:20:48;;;;;;;1.60;0.88;;;3.80;99.90;;;;;;4415052;32;20397;-73
2021/03/08 01:23:15;;;;;;;0.68;0.65;;;3.70;99.90;;;;;;4414989;32;20089;-72
2021/03/08 01:25:40;;;;;;;0.70;0.70;;;3.60;99.90;;;;;;4414784;32;20073;-71
2021/03/08 01:28:06;;;;;;;0.70;0.70;;;3.60;99.90;;;;;;4414705;32;20070;-72
2021/03/08 01:30:36;;;;;;;0.40;0.40;;;3.60;99.90;;;;;;4415942;32;20178;-72
2021/03/08 01:33:02;;;;;;;2.37;1.05;;;3.60;99.90;;;;;;4414702;32;20070;-72
2021/03/08 01:35:28;;;;;;;0.47;0.47;;;3.50;99.90;;;;;;4415131;32;20070;-72
2021/03/08 01:37:53;;;;;;;0.62;0.62;;;3.40;99.90;;;;;;4415063;32;20077;-72
2021/03/08 01:40:22;;;;;;;0.70;0.70;;;3.50;99.90;;;;;;4413987;32;20062;-72
2021/03/08 01:42:48;;;;;;;0.40;0.40;;;3.50;99.90;;;;;;4414899;32;20420;-72
2021/03/08 01:45:16;;;;;;;0.40;0.40;;;3.50;99.90;;;;;;4415706;32;20061;-72
2021/03/08 01:47:43;;;;;;;0.50;0.50;;;3.50;99.90;;;;;;4415109;32;20112;-72
2021/03/08 01:50:14;;;;;;;0.40;0.40;;;3.50;99.90;;;;;;4414885;32;20066;-72
2021/03/08 01:52:40;;;;;;;0.52;0.52;;;3.40;99.90;;;;;;4414381;32;20054;-72
2021/03/08 01:55:07;;;;;;;0.37;0.37;;;3.40;99.90;;;;;;4414537;32;20071;-73
2021/03/08 01:57:33;;;;;;;0.50;0.50;;;3.50;99.90;;;;;;4415896;32;20130;-72
2021/03/08 01:59:58;;;;;;;0.73;0.73;;;3.50;99.90;;;;;;4414315;32;20073;-72
2021/03/08 02:02:24;;;;;;;0.50;0.50;;;3.50;99.90;;;;;;4414188;32;20487;-74
2021/03/08 02:04:50;;;;;;;0.52;0.52;;;3.50;99.90;;;;;;4414450;32;20170;-73
2021/03/08 02:07:15;;;;;;;0.65;0.65;;;3.60;99.90;;;;;;4415743;32;20069;-73
2021/03/08 02:09:40;;;;;;;0.77;0.57;;;3.60;99.90;;;;;;4424280;32;20073;-73
2021/03/08 02:12:14;;;;;;;0.43;0.43;;;3.60;99.90;;;;;;4429750;32;20792;-72
2021/03/08 02:15:02;;;;;;;0.50;0.50;;;3.50;99.90;;;;;;4429678;32;20069;-72
2021/03/08 02:17:33;;;;;;;0.45;0.45;;;3.50;99.90;;;;;;4429314;32;20108;-72
2021/03/08 02:20:23;;;;;;;0.55;0.55;;;3.50;99.90;;;;;;4429592;32;20087;-73
2021/03/08 02:23:04;;;;;;;0.50;0.50;;;3.40;99.90;;;;;;4428770;32;20154;-72
2021/03/08 02:26:09;;;;;;;0.85;0.62;;;3.50;99.90;;;;;;4429270;32;20073;-72
2021/03/08 02:28:47;;;;;;;0.30;0.30;;;3.50;99.90;;;;;;4419118;32;20066;-73
2021/03/08 02:31:15;;;;;;;0.50;0.50;;;3.40;99.90;;;;;;4429265;32;20073;-72
2021/03/08 02:33:45;;;;;;;0.30;0.30;;;3.40;99.90;;;;;;4429072;32;20117;-72
2021/03/08 02:36:12;;;;;;;0.40;0.40;;;3.40;99.90;;;;;;4429599;32;20130;-72
2021/03/08 02:38:44;;;;;;;0.40;0.40;;;3.40;99.90;;;;;;4429684;32;20065;-72
2021/03/08 02:41:19;;;;;;;0.77;0.68;;;3.30;99.90;;;;;;4428593;32;20105;-72
2021/03/08 02:43:48;;;;;;;0.37;0.37;;;3.20;99.90;;;;;;4430064;32;20057;-72
2021/03/08 02:46:23;;;;;;;1.52;1.02;;;3.20;99.90;;;;;;4429750;32;20116;-73
2021/03/08 02:48:51;;;;;;;0.50;0.50;;;3.20;99.90;;;;;;4429409;32;20077;-73
2021/03/08 02:51:19;;;;;;;2.08;0.70;;;3.10;99.90;;;;;;4428919;32;20065;-72
2021/03/08 02:53:47;;;;;;;3.15;1.35;;;3.00;99.90;;;;;;4429124;32;20424;-72
2021/03/08 02:56:17;;;;;;;6.00;2.25;;;3.00;99.90;;;;;;4429327;32;20077;-72
2021/03/08 02:58:46;;;;;;;0.40;0.40;;;3.00;99.90;;;;;;4430306;32;20078;-72
2021/03/08 03:01:13;;;;;;;0.62;0.60;;;2.90;99.90;;;;;;4429796;32;20085;-72
2021/03/08 03:03:44;;;;;;;0.62;0.62;;;2.80;99.90;;;;;;4428945;32;20274;-73
2021/03/08 03:06:11;;;;;;;0.47;0.47;;;2.60;99.90;;;;;;4429330;32;20065;-72
2021/03/08 03:08:39;;;;;;;7.68;1.25;;;2.50;99.90;;;;;;4425826;32;20062;-73
2021/03/08 03:11:05;;;;;;;1.65;1.10;;;2.50;99.90;;;;;;4413053;32;20062;-72
2021/03/08 03:13:32;;;;;;;0.40;0.40;;;2.60;99.90;;;;;;4413646;32;20123;-72
2021/03/08 03:15:59;;;;;;;0.40;0.40;;;2.60;99.90;;;;;;4413793;32;20053;-73
2021/03/08 03:18:27;;;;;;;0.60;0.60;;;2.60;99.90;;;;;;4413517;32;20112;-72
2021/03/08 03:20:55;;;;;;;0.50;0.50;;;2.50;99.90;;;;;;4414907;32;20124;-72
2021/03/08 03:23:22;;;;;;;0.40;0.40;;;2.40;99.90;;;;;;4413506;32;20082;-73
2021/03/08 03:25:48;;;;;;;0.85;0.85;;;2.40;99.90;;;;;;4413971;32;20183;-72
2021/03/08 03:28:15;;;;;;;0.40;0.40;;;2.20;99.90;;;;;;4412996;32;20105;-73
2021/03/08 03:30:41;;;;;;;1.00;0.75;;;2.20;99.90;;;;;;4413624;32;20062;-72
2021/03/08 03:33:07;;;;;;;0.47;0.47;;;2.20;99.90;;;;;;4413710;32;20070;-72
2021/03/08 03:35:33;;;;;;;0.50;0.50;;;2.20;99.90;;;;;;4413923;32;20120;-73
2021/03/08 03:38:00;;;;;;;0.40;0.40;;;2.10;99.90;;;;;;4413548;32;20083;-72
2021/03/08 03:40:25;;;;;;;0.57;0.57;;;2.10;99.90;;;;;;4413395;32;20440;-72
2021/03/08 03:42:52;;;;;;;0.40;0.40;;;2.10;99.90;;;;;;4413746;32;20074;-72
2021/03/08 03:45:20;;;;;;;0.40;0.40;;;2.00;99.90;;;;;;4414110;32;20152;-72
2021/03/08 03:47:47;;;;;;;0.37;0.37;;;2.00;99.90;;;;;;4413236;32;20058;-72
2021/03/08 03:50:14;;;;;;;0.40;0.40;;;1.90;99.90;;;;;;4413945;32;20507;-72
2021/03/08 03:52:40;;;;;;;0.50;0.50;;;1.90;99.90;;;;;;4413229;32;20070;-72
2021/03/08 03:55:10;;;;;;;0.40;0.40;;;1.90;99.90;;;;;;4413405;32;20112;-73
2021/03/08 03:58:01;;;;;;;0.40;0.40;;;1.80;99.90;;;;;;4413169;32;20057;-72
2021/03/08 04:00:29;;;;;;;0.30;0.30;;;1.80;99.90;;;;;;4412077;32;20121;-72
2021/03/08 04:03:08;;;;;;;0.40;0.40;;;1.80;99.90;;;;;;4412901;32;20071;-72
2021/03/08 04:05:34;;;;;;;0.50;0.50;;;1.80;99.90;;;;;;4413347;32;20475;-73
2021/03/08 04:08:02;;;;;;;0.40;0.40;;;1.70;99.90;;;;;;4413206;32;20054;-72
2021/03/08 04:10:28;;;;;;;0.40;0.40;;;1.70;99.90;;;;;;4429182;32;20163;-73
2021/03/08 04:13:04;;;;;;;0.50;0.50;;;1.80;99.90;;;;;;4428650;32;20061;-72
2021/03/08 04:15:32;;;;;;;0.70;0.70;;;1.70;99.90;;;;;;4428706;32;20082;-72
2021/03/08 04:17:59;;;;;;;0.40;0.40;;;1.80;99.90;;;;;;4428562;32;20073;-72
2021/03/08 04:20:27;;;;;;;0.40;0.40;;;1.70;99.90;;;;;;4428453;32;20073;-72
2021/03/08 04:22:54;;;;;;;0.60;0.60;;;1.60;99.90;;;;;;4428226;32;20057;-72
2021/03/08 04:25:21;;;;;;;0.40;0.40;;;1.40;99.90;;;;;;4429144;32;20416;-72
2021/03/08 04:27:49;;;;;;;0.40;0.40;;;1.40;99.90;;;;;;4429437;32;20471;-72
2021/03/08 04:30:16;;;;;;;0.30;0.30;;;1.40;99.90;;;;;;4428140;32;20495;-72
2021/03/08 04:32:42;;;;;;;0.40;0.40;;;1.40;99.90;;;;;;4428872;32;20077;-72
2021/03/08 04:35:10;;;;;;;0.40;0.40;;;1.30;99.90;;;;;;4428640;32;20058;-72
2021/03/08 04:37:39;;;;;;;0.47;0.47;;;1.30;99.90;;;;;;4428490;32;20057;-73
2021/03/08 04:40:06;;;;;;;0.40;0.40;;;1.30;99.90;;;;;;4429200;32;20089;-73
2021/03/08 04:42:32;;;;;;;0.40;0.40;;;1.30;99.90;;;;;;4427766;32;20188;-72
2021/03/08 04:44:58;;;;;;;0.40;0.40;;;1.30;99.90;;;;;;4428549;32;20072;-72
2021/03/08 04:47:24;;;;;;;0.60;0.60;;;1.20;99.90;;;;;;4429582;32;20057;-72
2021/03/08 04:49:50;;;;;;;0.40;0.40;;;1.00;99.90;;;;;;4428915;32;20074;-73
2021/03/08 04:52:18;;;;;;;0.80;0.80;;;1.00;99.90;;;;;;4428255;32;20070;-73
2021/03/08 04:54:45;;;;;;;0.50;0.50;;;1.00;99.90;;;;;;4428464;32;20103;-72
2021/03/08 04:57:14;;;;;;;0.40;0.40;;;1.00;99.90;;;;;;4427906;32;20066;-73
2021/03/08 04:59:40;;;;;;;0.40;0.40;;;1.00;99.90;;;;;;4428164;32;20062;-72
2021/03/08 05:02:07;;;;;;;0.68;0.68;;;0.90;99.90;;;;;;4430273;32;20073;-72
2021/03/08 05:04:34;;;;;;;1.40;1.10;;;0.90;99.90;;;;;;4430571;32;20491;-72
2021/03/08 05:06:59;;;;;;;0.43;0.43;;;0.90;99.90;;;;;;4430666;32;20112;-72
2021/03/08 05:09:26;;;;;;;0.45;0.45;;;1.00;99.90;;;;;;4421469;32;20510;-72
2021/03/08 05:11:53;;;;;;;0.45;0.45;;;1.10;99.90;;;;;;4414289;32;20062;-72
2021/03/08 05:14:21;;;;;;;0.37;0.37;;;1.10;99.90;;;;;;4415495;32;20066;-72
2021/03/08 05:16:49;;;;;;;0.45;0.45;;;1.10;99.90;;;;;;4415908;32;20049;-72
2021/03/08 05:19:15;;;;;;;0.68;0.68;;;1.00;99.90;;;;;;4415132;32;20066;-72
2021/03/08 05:21:42;;;;;;;0.30;0.30;;;0.80;99.90;;;;;;4415083;32;20066;-72
2021/03/08 05:24:10;;;;;;;0.50;0.50;;;0.70;99.90;;;;;;4414676;32;20073;-72
2021/03/08 05:26:36;;;;;;;0.90;0.55;;;0.60;99.90;;;;;;4415075;32;20506;-72
2021/03/08 05:29:03;;;;;;;0.30;0.30;;;0.50;99.90;;;;;;4415250;32;20062;-72
2021/03/08 05:31:32;;;;;;;0.40;0.40;;;0.50;99.90;;;;;;4414860;32;20083;-72
2021/03/08 05:34:01;;;;;;;0.40;0.40;;;0.50;99.90;;;;;;4414903;32;20790;-74
2021/03/08 05:36:28;;;;;;;0.40;0.40;;;0.40;99.90;;;;;;4414990;32;20237;-72
2021/03/08 05:38:54;;;;;;;3.67;1.95;;;0.40;99.90;;;;;;4414873;32;20516;-74
2021/03/08 05:41:27;;;;;;;0.60;0.60;;;0.40;99.90;;;;;;4414187;32;20109;-74
2021/03/08 05:43:55;;;;;;;0.40;0.40;;;0.30;99.90;;;;;;4415757;32;20061;-74
2021/03/08 05:46:33;;;;;;;0.40;0.40;;;0.40;99.90;;;;;;4414983;32;20062;-72
2021/03/08 05:49:24;;;;;;;0.40;0.40;;;0.40;99.90;;;;;;4414928;32;20121;-72
2021/03/08 05:52:10;;;;;;;0.40;0.40;;;0.50;99.90;;;;;;4414964;32;20120;-72
2021/03/08 05:54:49;;;;;;;0.35;0.35;;;0.50;99.90;;;;;;4415898;32;20065;-72
2021/03/08 05:57:36;;;;;;;0.60;0.60;;;0.40;99.90;;;;;;4415167;32;20066;-72
2021/03/08 06:00:17;;;;;;;0.80;0.80;;;0.30;99.90;;;;;;4413452;32;20405;-72
2021/03/08 06:03:07;;;;;;;2.55;1.52;;;0.30;99.90;;;;;;4416106;32;20078;-72
2021/03/08 06:06:05;;;;;;;0.40;0.40;;;0.30;99.90;;;;;;4413160;32;20082;-73
2021/03/08 06:09:10;;;;;;;0.35;0.35;;;0.30;99.90;;;;;;4414677;32;20074;-72
2021/03/08 06:11:36;;;;;;;0.45;0.45;;;0.30;99.90;;;;;;4405116;32;20070;-72
2021/03/08 06:14:06;;;;;;;0.40;0.40;;;0.30;99.90;;;;;;4415586;32;20074;-72
2021/03/08 06:16:34;;;;;;;1.62;1.52;;;0.30;99.90;;;;;;4413765;32;20073;-72
2021/03/08 06:19:03;;;;;;;0.30;0.30;;;0.30;99.90;;;;;;4414106;32;20074;-73
2021/03/08 06:21:32;;;;;;;0.40;0.40;;;0.40;99.90;;;;;;4414146;32;20070;-72
2021/03/08 06:23:58;;;;;;;0.40;0.40;;;0.50;99.90;;;;;;4414042;32;20054;-72
2021/03/08 06:26:25;;;;;;;0.40;0.40;;;0.50;99.90;;;;;;4414011;32;20124;-72
2021/03/08 06:28:51;;;;;;;3.62;1.65;;;0.60;99.90;;;;;;4413763;32;20057;-72
2021/03/08 06:31:18;;;;;;;0.30;0.30;;;0.80;99.90;;;;;;4414388;32;20512;-72
2021/03/08 06:33:44;;;;;;;1.23;0.70;;;0.80;99.90;;;;;;4414132;32;20070;-72
2021/03/08 06:36:12;;;;;;;0.40;0.40;;;0.90;99.90;;;;;;4414204;32;20443;-72
2021/03/08 06:38:38;;;;;;;0.90;0.90;;;1.00;99.90;;;;;;4413955;32;20057;-72
2021/03/08 06:41:06;;;;;;;0.37;0.37;;;1.00;99.90;;;;;;4413918;32;20065;-73
2021/03/08 06:43:31;;;;;;;0.32;0.32;;;1.20;99.90;;;;;;4413741;32;20121;-73
2021/03/08 06:45:57;;;;;;;0.30;0.30;;;1.20;99.90;;;;;;4414083;32;20070;-73
2021/03/08 06:48:23;;;;;;;1.77;0.85;;;1.20;99.90;;;;;;4413412;32;20065;-73
2021/03/08 06:51:10;;;;;;;0.30;0.30;;;1.10;99.90;;;;;;4413965;32;20078;-73
2021/03/08 06:53:36;;;;;;;1.65;0.95;;;1.30;99.90;;;;;;4412958;32;20058;-73
2021/03/08 06:56:19;;;;;;;0.40;0.40;;;1.40;99.90;;;;;;4414999;32;20475;-73
2021/03/08 06:59:01;;;;;;;0.43;0.43;;;1.50;99.90;;;;;;4414274;32;20087;-73
2021/03/08 07:01:29;;;;;;;0.30;0.30;;;1.70;99.90;;;;;;4413614;32;20079;-72
2021/03/08 07:03:57;;;;;;;0.40;0.40;;;1.70;99.90;;;;;;4413769;32;20116;-72
2021/03/08 07:06:22;;;;;;;0.43;0.43;;;1.80;99.90;;;;;;4414413;32;20429;-72
2021/03/08 07:08:48;;;;;;;0.30;0.30;;;1.90;99.90;;;;;;4418463;32;20112;-72
2021/03/08 07:11:19;;;;;;;0.50;0.50;;;2.00;99.90;;;;;;4429113;32;20077;-74
2021/03/08 07:13:45;;;;;;;0.47;0.47;;;2.00;99.90;;;;;;4429940;32;20057;-72
2021/03/08 07:16:11;;;;;;;0.80;0.80;;;2.10;99.90;;;;;;4428513;32;20077;-73
2021/03/08 07:18:36;;;;;;;0.40;0.40;;;2.00;99.90;;;;;;4429088;32;20113;-72
2021/03/08 07:21:19;;;;;;;0.40;0.40;;;1.90;99.90;;;;;;4429240;32;20077;-72
2021/03/08 07:23:48;;;;;;;0.30;0.30;;;2.00;99.90;;;;;;4427878;32;20066;-72
2021/03/08 07:26:17;;;;;;;0.93;0.93;;;1.90;99.90;;;;;;4428789;32;20090;-72
2021/03/08 07:28:43;;;;;;;0.50;0.50;;;2.10;99.90;;;;;;4428506;32;20494;-73
2021/03/08 07:31:29;;;;;;;0.40;0.40;;;2.20;99.90;;;;;;4428781;32;20133;-72
2021/03/08 07:33:59;;;;;;;1.35;0.95;;;2.20;99.90;;;;;;4427974;32;20070;-73
2021/03/08 07:36:25;;;;;;;0.50;0.50;;;2.20;99.90;;;;;;4428612;32;20061;-73
2021/03/08 07:38:50;;;;;;;0.40;0.40;;;2.30;99.90;;;;;;4429321;32;20122;-72
2021/03/08 07:41:19;;;;;;;0.40;0.40;;;2.30;99.90;;;;;;4429528;32;20069;-72
2021/03/08 07:43:46;;;;;;;0.47;0.47;;;2.50;99.90;;;;;;4429619;32;20061;-72
2021/03/08 07:46:33;;;;;;;0.88;0.88;;;2.60;99.90;;;;;;4429433;32;20093;-73
2021/03/08 07:49:02;;;;;;;0.43;0.43;;;2.60;99.90;;;;;;4428767;32;20427;-72
2021/03/08 07:51:27;;;;;;;0.40;0.40;;;2.70;99.90;;;;;;4428511;32;20069;-73
2021/03/08 07:54:01;;;;;;;4.32;1.65;;;2.80;99.90;;;;;;4428273;32;20447;-73
2021/03/08 07:56:27;;;;;;;0.32;0.32;;;2.80;99.90;;;;;;4428646;32;20126;-72
2021/03/08 07:58:54;;;;;;;6.43;1.12;;;2.90;99.90;;;;;;4412662;32;20074;-73
2021/03/08 08:01:20;;;;;;;0.50;0.50;;;2.90;99.90;;;;;;4412965;32;20153;-73
2021/03/08 08:03:45;;;;;;;0.40;0.40;;;3.10;99.90;;;;;;4412278;32;20492;-73
2021/03/08 08:06:12;;;;;;;0.95;0.95;;;3.20;99.90;;;;;;4412856;32;20066;-73
2021/03/08 08:08:47;;;;;;;0.40;0.40;;;3.40;99.90;;;;;;4416261;32;20065;-73
2021/03/08 08:11:13;;;;;;;0.88;0.88;;;3.30;99.90;;;;;;4427638;32;20061;-73
2021/03/08 08:13:44;;;;;;;2.12;0.82;;;3.40;99.90;;;;;;4427936;32;20073;-73
2021/03/08 08:16:12;;;;;;;17.92;3.20;;;3.50;99.90;;;;;;4428071;32;20073;-73
2021/03/08 08:18:40;;;;;;;0.70;0.70;;;3.50;99.90;;;;;;4428593;32;20449;-73
2021/03/08 08:21:12;;;;;;;1.20;0.90;;;3.70;99.90;;;;;;4428445;32;20066;-73
2021/03/08 08:23:41;;;;;;;0.40;0.40;;;3.80;99.90;;;;;;4427984;32;20156;-73
2021/03/08 08:26:09;;;;;;;0.30;0.30;;;3.80;99.90;;;;;;4428032;32;20074;-73
2021/03/08 08:28:38;;;;;;;0.68;0.68;;;3.90;99.90;;;;;;4428639;32;20082;-73
2021/03/08 08:31:04;;;;;;;0.40;0.40;;;3.90;99.90;;;;;;4428454;32;20069;-73
2021/03/08 08:33:31;;;;;;;0.40;0.40;;;4.00;99.90;;;;;;4427982;32;20628;-73
2021/03/08 08:36:18;;;;;;;0.75;0.60;;;4.10;99.90;;;;;;4430467;32;20474;-73
2021/03/08 08:39:02;;;;;;;0.60;0.60;;;4.20;99.90;;;;;;4432442;32;20120;-73
2021/03/08 08:41:30;;;;;;;0.40;0.40;;;4.20;99.90;;;;;;4430565;32;20069;-73
2021/03/08 08:44:14;;;;;;;0.40;0.40;;;4.30;99.90;;;;;;4430404;32;20070;-73
2021/03/08 08:46:41;;;;;;;0.62;0.62;;;4.50;99.90;;;;;;4430619;32;20077;-73
2021/03/08 08:49:10;;;;;;;0.40;0.40;;;4.70;99.90;;;;;;4430713;32;20069;-73
2021/03/08 08:51:45;;;;;;;0.35;0.35;;;4.80;99.90;;;;;;4432136;32;20065;-73
2021/03/08 08:54:11;;;;;;;0.30;0.30;;;4.90;99.90;;;;;;4431516;32;20081;-73
2021/03/08 08:56:52;;;;;;;0.40;0.40;;;5.00;99.90;;;;;;4431386;32;20066;-74
2021/03/08 08:59:20;;;;;;;0.20;0.20;;;5.00;99.90;;;;;;4415429;32;20073;-73
2021/03/08 09:01:46;;;;;;;0.40;0.40;;;5.10;99.90;;;;;;4415211;32;20471;-73
2021/03/08 09:04:15;;;;;;;0.30;0.30;;;5.20;99.90;;;;;;4415343;32;20069;-74
2021/03/08 09:07:02;;;;;;;0.30;0.30;;;5.20;99.90;;;;;;4415532;32;20132;-74
2021/03/08 09:09:33;;;;;;;0.75;0.75;;;5.30;99.90;;;;;;4416684;32;20063;-73
2021/03/08 09:12:00;;;;;;;0.70;0.55;;;5.50;99.90;;;;;;4415605;32;20077;-74
2021/03/08 09:14:30;;;;;;;0.47;0.47;;;5.40;99.90;;;;;;4414434;32;20062;-73
2021/03/08 09:17:07;;;;;;;0.30;0.30;;;5.40;99.90;;;;;;4415011;32;20112;-74
2021/03/08 09:19:34;;;;;;;0.30;0.30;;;5.50;99.90;;;;;;4415508;32;20443;-74
2021/03/08 09:22:24;;;;;;;0.30;0.30;;;5.40;99.90;;;;;;4414438;32;20077;-74
2021/03/08 09:24:53;;;;;;;0.30;0.30;;;5.50;99.90;;;;;;4414018;32;20125;-74
2021/03/08 09:27:28;;;;;;;7.37;1.02;;;5.60;99.90;;;;;;4415052;32;20077;-74
2021/03/08 09:30:15;;;;;;;0.30;0.30;;;5.70;99.90;;;;;;4415809;32;20070;-73
2021/03/08 09:33:01;;;;;;;0.30;0.30;;;5.80;99.90;;;;;;4414917;32;20078;-73
2021/03/08 09:35:30;;;;;;;0.35;0.35;;;5.80;99.90;;;;;;4415840;32;20062;-73
2021/03/08 09:38:00;;;;;;;0.50;0.50;;;5.90;99.90;;;;;;4416205;32;20061;-72
2021/03/08 09:40:28;;;;;;;0.30;0.30;;;6.00;99.30;;;;;;4415573;32;20062;-73
2021/03/08 09:42:54;;;;;;;1.83;0.62;;;6.10;97.20;;;;;;4415346;32;20397;-73
2021/03/08 09:45:35;;;;;;;0.40;0.40;;;6.10;96.50;;;;;;4414266;32;20070;-73
2021/03/08 09:48:01;;;;;;;;;;;6.30;93.40;;;;;;4415288;32;20451;-74
2021/03/08 09:50:30;;;;;;;0.40;0.40;;;6.30;91.80;;;;;;4415768;32;19953;-74
2021/03/08 09:52:57;;;;;;;0.55;0.55;;;6.30;91.50;;;;;;4414206;32;20098;-72
2021/03/08 09:55:26;;;;;;;0.30;0.30;;;6.40;92.80;;;;;;4414331;32;20084;-72
2021/03/08 09:57:52;;;;;;;0.40;0.40;;;6.60;91.00;;;;;;4414901;32;20129;-72
2021/03/08 10:00:21;;;;;;;0.30;0.30;;;6.70;91.60;;;;;;4413854;32;20514;-73
2021/03/08 10:02:57;;;;;;;0.40;0.40;;;6.80;86.60;;;;;;4414462;32;20050;-73
2021/03/08 10:05:23;;;;;;;0.47;0.43;;;6.90;88.90;;;;;;4414328;32;20054;-73
2021/03/08 10:07:52;;;;;;;0.77;0.77;;;6.90;90.10;;;;;;4414516;32;20054;-73
2021/03/08 10:10:22;;;;;;;0.60;0.60;;;7.20;82.10;;;;;;4414130;32;20551;-73
2021/03/08 10:13:03;;;;;;;0.40;0.40;;;7.30;79.40;;;;;;4413952;32;20058;-73
2021/03/08 10:15:38;;;;;;;0.40;0.40;;;7.30;87.90;;;;;;4413964;32;20165;-73
2021/03/08 10:18:04;;;;;;;0.40;0.40;;;7.30;82.70;;;;;;4414510;32;20083;-73
2021/03/08 10:20:32;;;;;;;0.30;0.30;;;7.30;84.50;;;;;;4414222;32;20066;-73
2021/03/08 10:22:59;;;;;;;0.30;0.30;;;7.50;76.30;;;;;;4414536;32;20123;-73
2021/03/08 10:25:26;;;;;;;0.30;0.30;;;7.40;72.00;;;;;;4414299;32;20153;-73
2021/03/08 10:27:55;;;;;;;0.30;0.30;;;7.40;77.30;;;;;;4414474;32;20123;-73
2021/03/08 10:30:22;;;;;;;0.90;0.57;;;7.50;71.90;;;;;;4414677;32;20086;-74
2021/03/08 10:32:49;;;;;;;0.30;0.30;;;7.50;75.40;;;;;;4415191;32;20061;-72
2021/03/08 10:35:16;;;;;;;0.37;0.37;;;7.80;72.10;;;;;;4414041;32;20069;-73
2021/03/08 10:37:42;;;;;;;0.40;0.40;;;7.90;70.80;;;;;;4414295;32;20061;-73
2021/03/08 10:40:08;;;;;;;0.85;0.82;;;8.00;66.10;;;;;;4413524;32;20069;-73
2021/03/08 10:42:37;;;;;;;0.30;0.30;;;7.90;66.00;;;;;;4414488;32;20073;-73
2021/03/08 10:45:04;;;;;;;0.40;0.40;;;8.00;69.40;;;;;;4411151;32;79043;-73
2021/03/08 10:47:30;;;;;;;0.30;0.30;;;7.80;64.70;;;;;;4413883;32;20121;-73
2021/03/08 10:49:56;;;;;;;0.40;0.40;;;7.50;66.10;;;;;;4415175;32;20077;-74
2021/03/08 10:52:22;;;;;;;0.30;0.30;;;7.60;69.80;;;;;;4413636;32;20070;-74
2021/03/08 10:54:49;;;;;;;0.80;0.80;;;7.80;70.00;;;;;;4414097;32;20488;-74
2021/03/08 10:57:15;;;;;;;1.35;0.60;;;7.60;70.50;;;;;;4413227;32;20081;-74
2021/03/08 10:59:46;;;;;;;0.35;0.35;;;7.70;68.20;;;;;;4413607;32;20078;-74
2021/03/08 11:02:14;;;;;;;0.30;0.30;;;7.80;66.60;;;;;;4414021;32;20077;-74
2021/03/08 11:04:41;;;;;;;0.40;0.40;;;7.90;64.50;;;;;;4413731;32;20455;-74
2021/03/08 11:07:07;;;;;;;0.40;0.40;;;8.00;70.50;;;;;;4414211;32;20145;-74
2021/03/08 11:09:34;;;;;;;0.30;0.30;;;8.10;63.90;;;;;;4423674;32;20455;-74
2021/03/08 11:12:01;;;;;;;0.40;0.40;;;8.10;66.60;;;;;;4429757;32;20081;-74
2021/03/08 11:14:27;;;;;;;0.45;0.45;;;8.00;65.10;;;;;;4428953;32;20519;-73
2021/03/08 11:16:55;;;;;;;0.30;0.30;;;8.10;64.30;;;;;;4428716;32;20074;-74
2021/03/08 11:19:23;;;;;;;9.90;1.65;;;8.50;62.30;;;;;;4429074;32;20069;-73
2021/03/08 11:22:07;;;;;;;0.30;0.30;;;8.50;64.90;;;;;;4428611;32;20065;-74
2021/03/08 11:24:53;;;;;;;0.30;0.30;;;8.80;61.60;;;;;;4429413;32;20463;-73
2021/03/08 11:27:28;;;;;;;0.40;0.40;;;9.00;59.30;;;;;;4428843;32;20316;-73
2021/03/08 11:29:59;;;;;;;0.65;0.65;;;8.90;55.80;;;;;;4428881;32;20078;-73
2021/03/08 11:32:26;;;;;;;0.30;0.30;;;9.00;58.40;;;;;;4430016;32;20074;-74
2021/03/08 11:34:53;;;;;;;0.30;0.30;;;9.30;58.10;;;;;;4428565;32;20061;-74
2021/03/08 11:37:20;;;;;;;0.35;0.35;;;9.80;56.00;;;;;;4428682;32;20077;-74
2021/03/08 11:39:51;;;;;;;0.20;0.20;;;9.60;55.90;;;;;;4428070;32;20061;-74
2021/03/08 11:42:18;;;;;;;0.50;0.50;;;9.90;57.40;;;;;;4428699;32;20082;-74
2021/03/08 11:44:44;;;;;;;0.30;0.30;;;10.10;56.00;;;;;;4428103;32;20132;-74
2021/03/08 11:47:11;;;;;;;0.40;0.40;;;10.30;54.60;;;;;;4429495;32;20081;-74
2021/03/08 11:49:36;;;;;;;0.40;0.40;;;10.40;51.30;;;;;;4428905;32;20474;-74
2021/03/08 11:52:03;;;;;;;0.35;0.35;;;10.50;52.00;;;;;;4428252;32;20065;-74
2021/03/08 11:54:29;;;;;;;0.30;0.30;;;10.20;52.90;;;;;;4428475;32;20069;-74
2021/03/08 11:56:54;;;;;;;0.40;0.40;;;10.30;55.10;;;;;;4425865;32;20121;-75
2021/03/08 11:59:20;;;;;;;0.30;0.30;;;10.50;50.80;;;;;;4412654;32;20070;-74
2021/03/08 12:01:46;;;;;;;0.28;0.28;;;10.70;52.00;;;;;;4413034;32;20134;-75
2021/03/08 12:04:11;;;;;;;0.30;0.30;;;11.00;49.10;;;;;;4412751;32;20066;-75
2021/03/08 12:06:37;;;;;;;0.30;0.30;;;11.40;50.10;;;;;;4412638;32;20078;-74
2021/03/08 12:09:03;;;;;;;3.17;0.40;;;11.70;48.00;;;;;;4420166;32;20085;-75
2021/03/08 12:11:28;;;;;;;0.40;0.40;;;11.50;48.60;;;;;;4430440;32;20193;-75
2021/03/08 12:13:53;;;;;;;0.45;0.45;;;11.50;51.10;;;;;;4430342;32;20065;-74
2021/03/08 12:16:19;;;;;;;0.43;0.43;;;11.70;48.30;;;;;;4431646;32;20137;-74
2021/03/08 12:18:45;;;;;;;0.40;0.40;;;11.60;49.90;;;;;;4432708;32;20073;-73
2021/03/08 12:21:10;;;;;;;0.40;0.40;;;11.70;50.00;;;;;;4431163;32;20086;-75
2021/03/08 12:23:36;;;;;;;0.40;0.40;;;11.90;48.80;;;;;;4430815;32;20069;-74
2021/03/08 12:26:01;;;;;;;0.35;0.35;;;12.10;46.20;;;;;;4431127;32;20069;-74
2021/03/08 12:28:27;;;;;;;0.40;0.40;;;12.30;44.60;;;;;;4430264;32;20065;-74
2021/03/08 12:30:52;;;;;;;0.40;0.40;;;11.80;43.30;;;;;;4431151;32;20128;-74
2021/03/08 12:33:18;;;;;;;0.40;0.40;;;12.00;46.40;;;;;;4431936;32;20511;-73
2021/03/08 12:35:44;;;;;;;0.40;0.40;;;12.20;45.10;;;;;;4431472;32;20128;-75
2021/03/08 12:38:10;;;;;;;0.32;0.32;;;12.50;44.20;;;;;;4431100;32;20131;-73
2021/03/08 12:40:35;;;;;;;0.30;0.30;;;13.00;44.30;;;;;;4430162;32;20094;-73
2021/03/08 12:43:02;;;;;;;0.40;0.40;;;13.20;43.80;;;;;;4430263;32;20514;-73
2021/03/08 12:45:27;;;;;;;0.50;0.50;;;13.20;42.50;;;;;;4430942;32;20089;-73
2021/03/08 12:47:53;;;;;;;0.30;0.30;;;12.20;43.40;;;;;;4431064;32;20065;-73
2021/03/08 12:50:18;;;;;;;0.52;0.50;;;13.10;43.70;;;;;;4431111;32;20711;-74
2021/03/08 12:52:44;;;;;;;2.10;0.50;;;13.40;42.30;;;;;;4431120;32;20399;-74
2021/03/08 12:55:10;;;;;;;0.40;0.40;;;12.90;42.80;;;;;;4431266;32;20101;-74
2021/03/08 12:57:35;;;;;;;0.57;0.43;;;12.60;44.40;;;;;;4423824;32;20058;-74
2021/03/08 13:00:03;;;;;;;0.40;0.40;;;12.80;42.60;;;;;;4414985;32;20065;-74
2021/03/08 13:02:29;;;;;;;0.35;0.35;;;12.70;43.40;;;;;;4415677;32;20547;-74
2021/03/08 13:04:54;;;;;;;0.30;0.30;;;12.90;42.70;;;;;;4415193;32;20074;-73